x

Louisiana Offshore Oil Port, La (lopl1) Wave Buoy

2:25pm - Sat 23rd Sep 2017 All times are CDT. -5 hours from GMT.

  • Sig Wave height 2.3ft
  • Wind
    15mph, 17mph gusts
  • Air Temp 83°f
  • Sea Pressure 1013.1mb
  • Louisiana Offshore Oil Port, La
  • Louisiana Offshore Oil Port, La

More Historic Weather Station data

Upgrade to MSW Pro to gain access to the past 30 days of data for over 8000 Wavebouys and Weather Stations around the globe.

Join

Comparision Forecast

View Surf forecast
   
Sat 09/23 2:25pm 2.5ft 15 17 mph 1013.1mb 83f
1:25pm 2.5ft 14 16 mph 1013.1mb 83f
12:25pm 2.5ft 15 17 mph 1014.1mb 83f
11:20am 2.5ft 14 16 mph 1014.1mb 82f
10:20am 2ft 14 16 mph 1014.1mb 82f
9:20am 2ft 14 15 mph 1014.1mb 82f
8:20am 2ft 13 15 mph 1014.1mb 82f
7:20am 2ft 11 14 mph 1014.1mb 82f
6:20am 2ft 13 14 mph 1013.1mb 82f
5:20am 1.6ft 11 15 mph 1013.1mb 82f
4:20am 1.6ft 13 14 mph 1013.1mb 81f
3:20am 1.6ft 8 9 mph 1013.1mb 82f
2:20am 1.3ft 9 10 mph 1013.1mb 82f
1:20am 1.3ft 9 11 mph 1013.1mb 82f
12:20am 1.3ft 9 10 mph 1014.1mb 82f
Fri 09/22 11:20pm 1.3ft 9 10 mph 1014.1mb 83f
10:20pm 1.3ft 9 11 mph 1014.1mb 83f
9:20pm 1.3ft 8 9 mph 1014.1mb 83f
8:20pm 1.3ft 8 10 mph 1014.1mb 83f
7:20pm 1.3ft 8 9 mph 1013.1mb 83f
6:20pm 1.3ft 8 10 mph 1013.1mb 83f
5:15pm 1.6ft 8 10 mph 1013.1mb 83f
4:15pm 1.6ft 9 10 mph 1014.1mb 83f
3:15pm 1.3ft 8 10 mph 1014.1mb 83f
2:15pm 1.6ft 8 10 mph 1014.1mb 83f
1:15pm 1.6ft 8 9 mph 1015.1mb 82f
12:15pm 2ft 10 11 mph 1015.1mb 82f
11:15am 1.6ft 11 14 mph 1016.1mb 82f
10:15am 1.6ft 10 11 mph 1016.1mb 82f
9:15am 1.6ft 11 14 mph 1016.1mb 82f
8:15am 1.6ft 9 13 mph 1015.1mb 82f
7:15am 1.6ft 9 11 mph 1015.1mb 82f
6:15am 1.6ft 7 9 mph 1015.1mb 82f
5:15am 1.3ft 6 7 mph 1014.1mb 82f
4:15am 1.3ft 7 9 mph 1014.1mb 82f
3:15am 1.3ft 8 10 mph 1014.1mb 82f
2:15am 1.3ft 6 7 mph 1015.1mb 83f
1:15am 1.3ft 7 7 mph 1014.1mb 82f
12:15am 1.3ft 7 9 mph 1015.1mb 83f
Thu 09/21 11:15pm 1.3ft 6 7 mph 1015.1mb 83f
10:15pm 1.3ft 8 9 mph 1015.1mb 83f
9:15pm 1.3ft 6 7 mph 1015.1mb 83f
8:15pm 1.3ft 6 7 mph 1015.1mb 83f
7:15pm 1.3ft 6 8 mph 1015.1mb 83f
6:15pm 1.3ft 6 8 mph 1014.1mb 83f
5:15pm 1.3ft 7 8 mph 1014.1mb 82f
4:10pm 1.3ft 7 8 mph 1015.1mb 83f
3:10pm 1.3ft 9 13 mph 1015.1mb 83f
2:10pm 1ft 9 11 mph 1016.1mb 83f
1:09pm 1.3ft 9 11 mph 1016.1mb 83f
12:09pm 1.3ft 9 13 mph 1017.1mb 83f
11:09am 1ft 7 9 mph 1017.1mb 83f
10:09am 1ft 6 9 mph 1017.1mb 82f
9:09am 1ft 7 8 mph 1017.1mb 82f
8:09am 1ft 7 8 mph 1017.1mb 82f
7:09am 1ft 6 7 mph 1016.1mb 82f
6:09am 1.3ft 3 5 mph 1016.1mb 82f
5:09am 1.3ft 1 2 mph 1016.1mb 82f
4:09am 1ft 6 7 mph 1015.1mb 82f
3:09am 1.3ft 7 8 mph 1015.1mb 82f
2:09am 1.3ft 6 8 mph 1015.1mb 82f
1:09am 1.3ft 7 10 mph 1016.1mb 82f
12:09am 1.3ft 8 11 mph 1016.1mb 83f
Wed 09/20 11:09pm 1.3ft 7 8 mph 1016.1mb 83f
10:09pm 1.3ft 6 6 mph 1016.1mb 83f
9:09pm 1ft 5 6 mph 1016.1mb 83f
8:09pm 1ft 6 7 mph 1016.1mb 83f
7:09pm 1ft 5 6 mph 1015.1mb 83f
6:09pm 1.3ft 5 6 mph 1015.1mb 83f
5:09pm 1.3ft 6 7 mph 1015.1mb 84f
4:09pm 1.3ft 5 7 mph 1015.1mb 84f
3:09pm 1.3ft 5 6 mph 1015.1mb 84f
2:09pm 1.3ft 5 6 mph 1016.1mb 84f
1:09pm 1.3ft 2 6 mph 1016.1mb 86f
12:09pm 1.3ft 3 7 mph 1017.1mb 85f
11:09am 1.3ft 8 10 mph 1017.1mb 83f
10:09am 1.3ft 8 9 mph 1017.1mb 83f
9:09am 1.3ft 7 10 mph 1016.1mb 83f
8:09am 1.6ft 7 10 mph 1016.1mb 83f
7:04am 1.6ft 7 10 mph 1016.1mb 83f
6:04am 1.6ft 9 11 mph 1015.1mb 82f
5:04am 1.6ft 9 13 mph 1015.1mb 82f
4:04am 1.3ft 10 14 mph 1015.1mb 82f
3:04am 1.3ft 10 14 mph 1015.1mb 82f
2:04am 1.3ft 7 10 mph 1015.1mb 82f
1:04am 1ft 6 9 mph 1015.1mb 82f
12:04am 1ft 9 10 mph 1015.1mb 82f
Tue 09/19 11:04pm 1ft 8 11 mph 1015.1mb 83f
10:04pm 1ft 8 11 mph 1015.1mb 83f